createdAt,value
2018-12-14T00:00:33.781Z,87.47
2018-12-14T00:01:33.791Z,87.26
2018-12-14T00:02:33.767Z,87.05
2018-12-14T00:03:33.767Z,85.80
2018-12-14T00:04:33.768Z,85.69
2018-12-14T00:05:33.724Z,86.21
2018-12-14T00:06:33.745Z,85.06
2018-12-14T00:07:33.719Z,84.44
2018-12-14T00:08:33.711Z,84.65
2018-12-14T00:09:33.698Z,84.34
2018-12-14T00:10:33.685Z,83.81
2018-12-14T00:11:33.679Z,83.81
2018-12-14T00:12:33.657Z,84.96
2018-12-14T00:13:33.650Z,84.44
2018-12-14T00:14:33.643Z,84.34
2018-12-14T00:15:33.644Z,85.27
2018-12-14T00:16:33.637Z,85.17
2018-12-14T00:17:33.618Z,85.17
2018-12-14T00:18:33.591Z,85.17
2018-12-14T00:19:33.573Z,85.38
2018-12-14T00:20:33.612Z,85.38
2018-12-14T00:21:33.584Z,84.96
2018-12-14T00:22:33.544Z,85.49
2018-12-14T00:23:33.529Z,85.69
2018-12-14T00:24:33.520Z,85.59
2018-12-14T00:25:33.507Z,85.69
2018-12-14T00:26:33.547Z,85.27
2018-12-14T00:27:33.498Z,85.80
2018-12-14T00:28:33.481Z,86.00
2018-12-14T00:29:33.471Z,86.32
2018-12-14T00:30:33.461Z,85.90
2018-12-14T00:31:33.440Z,86.74
2018-12-14T00:32:33.454Z,86.94
2018-12-14T00:33:33.420Z,87.05
2018-12-14T00:34:33.427Z,86.43
2018-12-14T00:35:33.409Z,86.11
2018-12-14T00:36:33.401Z,85.80
2018-12-14T00:37:33.403Z,85.90
2018-12-14T00:38:33.388Z,86.11
2018-12-14T00:39:33.365Z,86.11
2018-12-14T00:40:33.359Z,85.55
2018-12-14T00:41:33.343Z,85.13
2018-12-14T00:42:33.338Z,83.61
2018-12-14T00:43:33.343Z,84.75
2018-12-14T00:44:33.325Z,84.61
2018-12-14T00:45:33.285Z,83.57
2018-12-14T00:46:33.295Z,83.78
2018-12-14T00:47:33.280Z,84.50
2018-12-14T00:48:33.282Z,83.67
2018-12-14T00:49:33.295Z,82.56
2018-12-14T00:50:33.236Z,82.73
2018-12-14T00:51:33.221Z,80.44
2018-12-14T00:52:33.231Z,80.33
2018-12-14T00:53:33.228Z,80.37
2018-12-14T00:54:33.195Z,80.68
2018-12-14T00:55:33.193Z,81.41
2018-12-14T00:56:33.202Z,80.89
2018-12-14T00:57:33.172Z,79.74
2018-12-14T00:58:33.157Z,78.18
2018-12-14T00:59:33.147Z,78.91
2018-12-14T01:00:33.130Z,78.91
2018-12-14T01:01:33.128Z,79.53
2018-12-14T01:02:33.130Z,79.95
2018-12-14T01:03:33.090Z,78.28
2018-12-14T01:04:33.092Z,78.39
2018-12-14T01:05:33.087Z,78.49
2018-12-14T01:06:33.072Z,78.07
2018-12-14T01:07:33.081Z,77.69
2018-12-14T01:08:33.042Z,78.59
2018-12-14T01:09:33.029Z,79.05
2018-12-14T01:10:33.048Z,78.74
2018-12-14T01:11:33.022Z,78.94
2018-12-14T01:12:33.025Z,78.70
2018-12-14T01:13:33.000Z,78.80
2018-12-14T01:14:32.987Z,78.21
2018-12-14T01:15:32.969Z,79.05
2018-12-14T01:16:32.959Z,78.84
2018-12-14T01:17:32.952Z,79.53
2018-12-14T01:18:32.938Z,79.57
2018-12-14T01:19:32.927Z,79.88
2018-12-14T01:20:32.929Z,78.28
2018-12-14T01:21:32.928Z,78.59
2018-12-14T01:22:32.913Z,78.59
2018-12-14T01:23:32.899Z,77.76
2018-12-14T01:24:32.875Z,78.28
2018-12-14T01:25:32.869Z,77.86
2018-12-14T01:26:32.847Z,76.92
2018-12-14T01:27:32.844Z,77.14
2018-12-14T01:28:32.860Z,77.66
2018-12-14T01:29:32.819Z,77.97
2018-12-14T01:30:32.822Z,79.05
2018-12-14T01:31:32.806Z,77.97
2018-12-14T01:32:32.797Z,78.42
2018-12-14T01:33:32.783Z,77.80
2018-12-14T01:34:32.792Z,78.74
2018-12-14T01:35:32.756Z,79.74
2018-12-14T01:36:32.753Z,79.57
2018-12-14T01:37:32.748Z,80.62
2018-12-14T01:38:32.732Z,80.72
2018-12-14T01:39:32.716Z,81.56
2018-12-14T01:40:32.717Z,83.23
2018-12-14T01:41:32.685Z,82.50
2018-12-14T01:42:32.685Z,82.07
2018-12-14T01:43:32.674Z,81.45
2018-12-14T01:44:32.666Z,83.44
2018-12-14T01:45:32.701Z,81.97
2018-12-14T01:46:32.636Z,82.07
2018-12-14T01:47:32.625Z,81.45
2018-12-14T01:48:32.603Z,81.66
2018-12-14T01:49:32.609Z,80.93
2018-12-14T01:50:32.602Z,79.57
2018-12-14T01:51:32.602Z,78.53
2018-12-14T01:52:32.583Z,79.47
2018-12-14T01:53:32.565Z,79.88
2018-12-14T01:54:32.561Z,81.03
2018-12-14T01:55:32.572Z,79.78
2018-12-14T01:56:32.531Z,80.41
2018-12-14T01:57:32.519Z,80.62
2018-12-14T01:58:32.498Z,80.82
2018-12-14T01:59:32.494Z,79.99
2018-12-14T02:00:32.477Z,80.20
2018-12-14T02:01:32.499Z,80.09
2018-12-14T02:02:32.497Z,80.72
2018-12-14T02:03:32.487Z,80.51
2018-12-14T02:04:32.438Z,80.20
2018-12-14T02:05:32.437Z,80.82
2018-12-14T02:06:32.432Z,80.30
2018-12-14T02:07:32.400Z,81.66
2018-12-14T02:08:32.430Z,80.09
2018-12-14T02:09:32.390Z,79.99
2018-12-14T02:10:32.376Z,79.57
2018-12-14T02:11:32.399Z,80.41
2018-12-14T02:12:32.378Z,80.72
2018-12-14T02:13:32.358Z,79.26
2018-12-14T02:14:32.334Z,80.41
2018-12-14T02:15:32.358Z,80.41
2018-12-14T02:16:32.332Z,79.68
2018-12-14T02:17:32.311Z,78.63
2018-12-14T02:18:32.294Z,78.98
2018-12-14T02:19:32.263Z,79.61
2018-12-14T02:20:32.252Z,78.77
2018-12-14T02:21:32.282Z,79.61
2018-12-14T02:22:32.250Z,79.82
2018-12-14T02:23:32.243Z,79.61
2018-12-14T02:24:32.229Z,79.50
2018-12-14T02:25:32.227Z,78.60
2018-12-14T02:26:32.205Z,79.54
2018-12-14T02:27:32.218Z,79.61
2018-12-14T02:28:32.189Z,79.85
2018-12-14T02:29:32.179Z,80.38
2018-12-14T02:30:32.157Z,80.58
2018-12-14T02:31:32.148Z,80.34
2018-12-14T02:32:32.133Z,80.38
2018-12-14T02:33:32.141Z,80.27
2018-12-14T02:34:32.120Z,80.90
2018-12-14T02:35:32.117Z,80.44
2018-12-14T02:36:32.097Z,80.90
2018-12-14T02:37:32.087Z,82.15
2018-12-14T02:38:32.088Z,81.11
2018-12-14T02:39:32.058Z,81.70
2018-12-14T02:40:32.048Z,80.16
2018-12-14T02:41:32.036Z,81.00
2018-12-14T02:42:32.038Z,80.69
2018-12-14T02:43:32.119Z,81.84
2018-12-14T02:44:32.011Z,81.28
2018-12-14T02:45:32.014Z,81.59
2018-12-14T02:46:31.993Z,81.42
2018-12-14T02:47:31.979Z,81.84
2018-12-14T02:48:31.977Z,81.49
2018-12-14T02:49:31.985Z,81.18
2018-12-14T02:50:31.963Z,81.52
2018-12-14T02:51:31.927Z,81.59
2018-12-14T02:52:31.918Z,81.49
2018-12-14T02:53:31.904Z,81.70
2018-12-14T02:54:31.923Z,80.13
2018-12-14T02:55:31.891Z,80.24
2018-12-14T02:56:31.900Z,80.16
2018-12-14T02:57:31.869Z,81.42
2018-12-14T02:58:31.877Z,81.21
2018-12-14T02:59:31.847Z,81.32
2018-12-14T03:00:31.866Z,80.79
2018-12-14T03:01:31.830Z,81.00
2018-12-14T03:02:31.805Z,81.00
2018-12-14T03:03:31.799Z,80.69
2018-12-14T03:04:31.836Z,80.38
2018-12-14T03:05:31.779Z,80.27
2018-12-14T03:06:31.784Z,80.73
2018-12-14T03:07:31.768Z,80.58
2018-12-14T03:08:31.755Z,80.27
2018-12-14T03:09:31.775Z,80.90
2018-12-14T03:10:31.718Z,81.42
2018-12-14T03:11:31.709Z,81.21
2018-12-14T03:12:31.695Z,80.06
2018-12-14T03:13:31.691Z,80.69
2018-12-14T03:14:31.680Z,80.27
2018-12-14T03:15:31.695Z,81.11
2018-12-14T03:16:31.660Z,80.69
2018-12-14T03:17:31.646Z,80.38
2018-12-14T03:18:31.642Z,80.52
2018-12-14T03:19:31.632Z,80.52
2018-12-14T03:20:31.649Z,80.41
2018-12-14T03:21:31.619Z,79.99
2018-12-14T03:22:31.586Z,79.96
2018-12-14T03:23:31.593Z,80.90
2018-12-14T03:24:31.587Z,80.41
2018-12-14T03:25:31.569Z,80.10
2018-12-14T03:26:31.557Z,80.52
2018-12-14T03:27:31.557Z,80.27
2018-12-14T03:28:31.541Z,79.89
2018-12-14T03:29:31.524Z,80.52
2018-12-14T03:30:31.536Z,80.41
2018-12-14T03:31:31.516Z,80.73
2018-12-14T03:32:31.492Z,80.10
2018-12-14T03:33:31.488Z,80.83
2018-12-14T03:34:31.455Z,80.52
2018-12-14T03:35:31.454Z,80.52
2018-12-14T03:36:31.464Z,79.89
2018-12-14T03:37:31.454Z,80.31
2018-12-14T03:38:31.438Z,80.52
2018-12-14T03:39:31.417Z,80.41
2018-12-14T03:40:31.435Z,80.73
2018-12-14T03:41:31.438Z,80.52
2018-12-14T03:42:34.613Z,80.20
2018-12-14T03:43:31.371Z,81.04
2018-12-14T03:44:31.350Z,81.15
2018-12-14T03:45:31.395Z,81.46
2018-12-14T03:46:31.340Z,81.15
2018-12-14T03:47:31.353Z,81.15
2018-12-14T03:48:31.320Z,81.56
2018-12-14T03:49:31.314Z,80.93
2018-12-14T03:50:31.302Z,80.62
2018-12-14T03:51:31.310Z,80.83
2018-12-14T03:52:31.303Z,80.97
2018-12-14T03:53:31.263Z,80.41
2018-12-14T03:54:31.253Z,80.13
2018-12-14T03:55:31.271Z,81.15
2018-12-14T03:56:31.234Z,81.46
2018-12-14T03:57:31.210Z,81.56
2018-12-14T03:58:31.203Z,81.15
2018-12-14T03:59:31.212Z,80.41
2018-12-14T04:00:31.234Z,80.20
2018-12-14T04:01:31.185Z,81.25
2018-12-14T04:02:31.168Z,80.52
2018-12-14T04:03:31.153Z,80.41
2018-12-14T04:04:31.143Z,80.93
2018-12-14T04:05:31.176Z,81.04
2018-12-14T04:06:31.134Z,81.15
2018-12-14T04:07:31.111Z,81.04
2018-12-14T04:08:31.104Z,81.35
2018-12-14T04:09:31.089Z,81.15
2018-12-14T04:10:31.080Z,81.04
2018-12-14T04:11:31.088Z,80.83
2018-12-14T04:12:31.066Z,81.67
2018-12-14T04:13:31.051Z,81.56
2018-12-14T04:14:31.041Z,81.46
2018-12-14T04:15:31.018Z,81.87
2018-12-14T04:16:31.024Z,81.87
2018-12-14T04:17:31.025Z,81.67
2018-12-14T04:18:30.995Z,81.67
2018-12-14T04:19:30.994Z,81.87
2018-12-14T04:20:30.976Z,82.29
2018-12-14T04:21:30.991Z,81.87
2018-12-14T04:22:30.959Z,82.36
2018-12-14T04:23:30.957Z,82.40
2018-12-14T04:24:30.935Z,81.98
2018-12-14T04:25:30.919Z,82.15
2018-12-14T04:26:30.944Z,82.57
2018-12-14T04:27:30.931Z,82.26
2018-12-14T04:28:30.892Z,82.26
2018-12-14T04:29:30.879Z,82.26
2018-12-14T04:30:30.874Z,82.89
2018-12-14T04:31:30.870Z,82.57
2018-12-14T04:32:30.856Z,82.46
2018-12-14T04:33:30.863Z,82.57
2018-12-14T04:34:30.812Z,82.89
2018-12-14T04:35:30.820Z,82.26
2018-12-14T04:36:30.858Z,82.46
2018-12-14T04:37:30.798Z,82.26
2018-12-14T04:38:30.797Z,81.73
2018-12-14T04:39:31.290Z,82.05
2018-12-14T04:40:30.760Z,82.26
2018-12-14T04:41:30.745Z,82.26
2018-12-14T04:42:30.770Z,82.05
2018-12-14T04:43:30.770Z,83.20
2018-12-14T04:44:30.718Z,82.67
2018-12-14T04:45:30.738Z,81.95
2018-12-14T04:46:30.677Z,81.21
2018-12-14T04:47:30.757Z,81.63
2018-12-14T04:48:30.664Z,81.32
2018-12-14T04:49:30.680Z,81.11
2018-12-14T04:50:30.656Z,81.11
2018-12-14T04:51:30.646Z,80.62
2018-12-14T04:52:30.652Z,81.98
2018-12-14T04:53:30.635Z,81.95
2018-12-14T04:54:30.622Z,81.77
2018-12-14T04:55:30.615Z,81.73
2018-12-14T04:56:30.583Z,81.46
2018-12-14T04:57:30.588Z,82.19
2018-12-14T04:58:30.564Z,82.09
2018-12-14T04:59:30.561Z,80.93
2018-12-14T05:00:30.538Z,81.25
2018-12-14T05:01:30.527Z,80.62
2018-12-14T05:02:30.524Z,81.67
2018-12-14T05:03:30.528Z,81.04
2018-12-14T05:04:30.635Z,80.93
2018-12-14T05:05:30.509Z,80.41
2018-12-14T05:06:31.526Z,80.62
2018-12-14T05:07:30.493Z,80.73
2018-12-14T05:08:30.457Z,80.41
2018-12-14T05:09:30.496Z,80.41
2018-12-14T05:10:30.447Z,80.52
2018-12-14T05:11:30.412Z,79.99
2018-12-14T05:12:30.406Z,79.99
2018-12-14T05:13:30.388Z,80.20
2018-12-14T05:14:30.441Z,81.07
2018-12-14T05:15:30.388Z,80.55
2018-12-14T05:16:30.376Z,82.02
2018-12-14T05:17:30.362Z,80.97
2018-12-14T05:18:30.353Z,81.70
2018-12-14T05:19:30.339Z,81.49
2018-12-14T05:20:30.346Z,81.81
2018-12-14T05:21:30.305Z,81.49
2018-12-14T05:22:30.322Z,81.70
2018-12-14T05:23:30.292Z,82.33
2018-12-14T05:24:30.286Z,82.86
2018-12-14T05:25:30.298Z,82.23
2018-12-14T05:26:30.266Z,82.23
2018-12-14T05:27:30.250Z,82.23
2018-12-14T05:28:30.249Z,82.43
2018-12-14T05:29:30.227Z,82.86
2018-12-14T05:30:30.238Z,82.75
2018-12-14T05:31:30.202Z,83.27
2018-12-14T05:32:30.192Z,83.69
2018-12-14T05:33:30.185Z,84.32
2018-12-14T05:34:30.190Z,83.44
2018-12-14T05:35:30.200Z,83.44
2018-12-14T05:36:30.175Z,83.13
2018-12-14T05:37:30.147Z,83.34
2018-12-14T05:38:30.127Z,82.60
2018-12-14T05:39:30.121Z,83.23
2018-12-14T05:40:30.147Z,83.86
2018-12-14T05:41:31.355Z,84.59
2018-12-14T05:42:30.096Z,82.71
2018-12-14T05:43:30.091Z,83.03
2018-12-14T05:44:30.091Z,83.34
2018-12-14T05:45:30.080Z,83.34
2018-12-14T05:46:30.063Z,83.76
2018-12-14T05:47:30.036Z,83.34
2018-12-14T05:48:30.027Z,83.80
2018-12-14T05:49:30.017Z,84.07
2018-12-14T05:50:30.035Z,83.13
2018-12-14T05:51:29.989Z,83.34
2018-12-14T05:52:29.986Z,83.44
2018-12-14T05:53:29.986Z,83.55
2018-12-14T05:54:29.981Z,83.23
2018-12-14T05:55:29.954Z,83.65
2018-12-14T05:56:29.928Z,82.67
2018-12-14T05:57:29.927Z,83.30
2018-12-14T05:58:29.940Z,82.60
2018-12-14T05:59:29.931Z,83.30
2018-12-14T06:00:29.917Z,83.44
2018-12-14T06:01:29.904Z,82.99
2018-12-14T06:02:29.867Z,82.60
2018-12-14T06:03:29.877Z,82.78
2018-12-14T06:04:29.879Z,82.89
2018-12-14T06:05:29.865Z,83.09
2018-12-14T06:06:29.829Z,84.07
2018-12-14T06:07:29.823Z,82.89
2018-12-14T06:08:29.826Z,82.78
2018-12-14T06:09:29.819Z,82.71
2018-12-14T06:10:29.810Z,83.30
2018-12-14T06:11:29.767Z,82.82
2018-12-14T06:12:29.768Z,83.23
2018-12-14T06:13:29.761Z,83.34
2018-12-14T06:14:29.738Z,83.65
2018-12-14T06:15:29.758Z,83.09
2018-12-14T06:16:29.847Z,83.20
2018-12-14T06:17:29.705Z,83.20
2018-12-14T06:18:29.715Z,83.40
2018-12-14T06:19:29.701Z,83.20
2018-12-14T06:20:29.671Z,83.30
2018-12-14T06:21:29.690Z,83.62
2018-12-14T06:22:29.667Z,83.40
2018-12-14T06:23:29.666Z,82.67
2018-12-14T06:24:29.630Z,83.72
2018-12-14T06:25:29.639Z,84.56
2018-12-14T06:26:29.622Z,83.51
2018-12-14T06:27:29.615Z,83.40
2018-12-14T06:28:29.605Z,83.09
2018-12-14T06:29:29.605Z,83.20
2018-12-14T06:30:29.569Z,84.56
2018-12-14T06:31:29.576Z,83.20
2018-12-14T06:32:29.553Z,82.67
2018-12-14T06:33:29.526Z,83.40
2018-12-14T06:34:29.572Z,82.67
2018-12-14T06:35:29.514Z,81.95
2018-12-14T06:36:29.513Z,81.52
2018-12-14T06:37:29.523Z,81.21
2018-12-14T06:38:29.490Z,81.11
2018-12-14T06:39:29.553Z,82.05
2018-12-14T06:40:29.504Z,82.26
2018-12-14T06:41:29.450Z,82.05
2018-12-14T06:42:29.442Z,81.95
2018-12-14T06:43:29.434Z,81.73
2018-12-14T06:44:29.429Z,81.32
2018-12-14T06:45:29.408Z,81.63
2018-12-14T06:46:29.438Z,81.80
2018-12-14T06:47:29.389Z,81.84
2018-12-14T06:48:29.391Z,80.79
2018-12-14T06:49:29.375Z,80.27
2018-12-14T06:50:29.365Z,80.06
2018-12-14T06:51:29.374Z,80.69
2018-12-14T06:52:29.354Z,81.32
2018-12-14T06:53:29.317Z,81.73
2018-12-14T06:54:29.325Z,81.73
2018-12-14T06:55:29.309Z,82.36
2018-12-14T06:56:29.315Z,82.57
2018-12-14T06:57:29.318Z,82.89
2018-12-14T06:58:29.264Z,82.89
2018-12-14T06:59:29.248Z,82.57
2018-12-14T07:00:29.256Z,82.26
2018-12-14T07:01:29.269Z,81.63
2018-12-14T07:02:29.242Z,81.63
2018-12-14T07:03:29.219Z,82.26
2018-12-14T07:04:29.220Z,82.26
2018-12-14T07:05:29.203Z,82.99
2018-12-14T07:06:29.202Z,82.26
2018-12-14T07:07:29.202Z,82.36
2018-12-14T07:08:29.181Z,82.05
2018-12-14T07:09:29.159Z,81.63
2018-12-14T07:10:29.126Z,81.52
2018-12-14T07:11:29.171Z,81.63
2018-12-14T07:12:29.125Z,81.84
2018-12-14T07:13:29.118Z,81.73
2018-12-14T07:14:29.098Z,81.95
2018-12-14T07:15:29.098Z,82.05
2018-12-14T07:16:29.065Z,83.20
2018-12-14T07:17:29.078Z,82.67
2018-12-14T07:18:29.056Z,82.36
2018-12-14T07:19:29.134Z,81.63
2018-12-14T07:20:29.029Z,81.84
2018-12-14T07:21:29.034Z,81.42
2018-12-14T07:22:29.016Z,81.73
2018-12-14T07:23:28.993Z,82.57
2018-12-14T07:24:28.981Z,82.15
2018-12-14T07:25:28.986Z,82.32
2018-12-14T07:26:28.971Z,81.42
2018-12-14T07:27:28.977Z,82.26
2018-12-14T07:28:28.948Z,82.67
2018-12-14T07:29:28.969Z,82.57
2018-12-14T07:30:28.922Z,82.78
2018-12-14T07:31:28.925Z,82.67
2018-12-14T07:32:28.910Z,81.80
2018-12-14T07:33:28.895Z,81.59
2018-12-14T07:34:28.883Z,81.07
2018-12-14T07:35:28.879Z,81.28
2018-12-14T07:36:28.876Z,81.07
2018-12-14T07:37:28.842Z,80.44
2018-12-14T07:38:28.843Z,80.96
2018-12-14T07:39:28.838Z,81.18
2018-12-14T07:40:28.853Z,81.49
2018-12-14T07:41:28.824Z,81.28
2018-12-14T07:42:28.788Z,81.70
2018-12-14T07:43:28.780Z,81.38
2018-12-14T07:44:28.827Z,80.90
2018-12-14T07:45:28.783Z,80.90
2018-12-14T07:46:28.814Z,81.11
2018-12-14T07:47:28.739Z,81.32
2018-12-14T07:48:28.729Z,81.21
2018-12-14T07:49:28.713Z,81.32
2018-12-14T07:50:28.752Z,81.21
2018-12-14T07:51:28.699Z,81.52
2018-12-14T07:52:28.702Z,81.42
2018-12-14T07:53:28.684Z,81.84
2018-12-14T07:54:28.664Z,82.05
2018-12-14T07:55:28.646Z,81.63
2018-12-14T07:56:28.678Z,82.57
2018-12-14T07:57:28.697Z,81.52
2018-12-14T07:58:28.627Z,81.52
2018-12-14T07:59:28.621Z,81.32
2018-12-14T08:00:28.612Z,82.05
2018-12-14T08:01:28.612Z,81.84
2018-12-14T08:02:28.590Z,82.78
2018-12-14T08:03:28.565Z,83.40
2018-12-14T08:04:28.569Z,81.73
2018-12-14T08:05:28.549Z,81.84
2018-12-14T08:06:28.537Z,82.46
2018-12-14T08:07:28.549Z,81.21
2018-12-14T08:08:28.518Z,81.42
2018-12-14T08:09:28.516Z,81.32
2018-12-14T08:10:28.509Z,81.84
2018-12-14T08:11:28.487Z,81.32
2018-12-14T08:12:28.512Z,80.90
2018-12-14T08:13:34.689Z,81.52
2018-12-14T08:14:29.445Z,80.90
2018-12-14T08:15:28.440Z,81.84
2018-12-14T08:16:28.434Z,81.84
2018-12-14T08:17:28.409Z,81.00
2018-12-14T08:18:28.440Z,81.52
2018-12-14T08:19:28.407Z,82.26
2018-12-14T08:20:28.384Z,81.73
2018-12-14T08:21:28.375Z,82.32
2018-12-14T08:22:28.378Z,82.01
2018-12-14T08:23:28.369Z,82.05
2018-12-14T08:24:28.359Z,81.28
2018-12-14T08:25:28.342Z,80.86
2018-12-14T08:26:28.312Z,80.96
2018-12-14T08:27:28.339Z,81.28
2018-12-14T08:28:28.317Z,81.70
2018-12-14T08:29:28.297Z,82.53
2018-12-14T08:30:28.275Z,81.18
2018-12-14T08:31:28.275Z,80.65
2018-12-14T08:32:28.258Z,81.56
2018-12-14T08:33:28.255Z,81.80
2018-12-14T08:34:28.250Z,80.20
2018-12-14T08:35:28.226Z,81.03
2018-12-14T08:36:28.217Z,80.41
2018-12-14T08:37:28.217Z,79.15
2018-12-14T08:38:28.186Z,80.34
2018-12-14T08:39:28.182Z,80.13
2018-12-14T08:40:28.194Z,80.09
2018-12-14T08:41:28.163Z,80.82
2018-12-14T08:42:28.154Z,80.09
2018-12-14T08:43:28.138Z,80.41
2018-12-14T08:44:28.128Z,80.62
2018-12-14T08:45:28.127Z,80.20
2018-12-14T08:46:28.137Z,80.41
2018-12-14T08:47:28.103Z,80.30
2018-12-14T08:48:28.082Z,80.41
2018-12-14T08:49:28.089Z,79.88
2018-12-14T08:50:28.061Z,79.68
2018-12-14T08:51:28.079Z,79.68
2018-12-14T08:52:28.043Z,79.22
2018-12-14T08:53:28.042Z,78.94
2018-12-14T08:54:28.027Z,79.47
2018-12-14T08:55:28.018Z,79.57
2018-12-14T08:56:28.022Z,80.93
2018-12-14T08:57:28.008Z,80.37
2018-12-14T08:58:27.970Z,80.37
2018-12-14T08:59:27.971Z,78.80
2018-12-14T09:00:27.951Z,78.59
2018-12-14T09:01:27.968Z,79.64
2018-12-14T09:02:27.973Z,78.80
2018-12-14T09:03:27.931Z,79.64
2018-12-14T09:04:27.922Z,78.49
2018-12-14T09:05:27.899Z,77.97
2018-12-14T09:06:27.884Z,78.49
2018-12-14T09:07:27.902Z,78.28
2018-12-14T09:08:27.892Z,78.59
2018-12-14T09:09:27.860Z,78.07
2018-12-14T09:10:27.833Z,78.39
2018-12-14T09:11:27.832Z,78.63
2018-12-14T09:12:27.848Z,77.97
2018-12-14T09:13:27.815Z,78.70
2018-12-14T09:14:27.879Z,80.62
2018-12-14T09:15:27.791Z,80.47
2018-12-14T09:16:27.785Z,79.74
2018-12-14T09:17:27.773Z,78.80
2018-12-14T09:18:27.785Z,78.07
2018-12-14T09:19:27.744Z,79.53
2018-12-14T09:20:27.734Z,78.59
2018-12-14T09:21:27.719Z,78.59
2018-12-14T09:22:27.721Z,78.49
2018-12-14T09:23:27.705Z,78.14
2018-12-14T09:24:27.755Z,78.56
2018-12-14T09:25:27.676Z,77.72
2018-12-14T09:26:27.689Z,78.14
2018-12-14T09:27:27.667Z,78.04
2018-12-14T09:28:27.660Z,78.35
2018-12-14T09:29:27.639Z,77.83
2018-12-14T09:30:27.649Z,78.14
2018-12-14T09:31:27.617Z,77.00
2018-12-14T09:32:27.603Z,77.62
2018-12-14T09:33:27.599Z,77.51
2018-12-14T09:34:27.609Z,77.94
2018-12-14T09:35:27.583Z,76.37
2018-12-14T09:36:27.566Z,76.26
2018-12-14T09:37:27.555Z,76.51
2018-12-14T09:38:27.528Z,76.89
2018-12-14T09:39:27.558Z,76.68
2018-12-14T09:40:27.515Z,76.57
2018-12-14T09:41:27.522Z,76.92
2018-12-14T09:42:27.490Z,77.00
2018-12-14T09:43:27.485Z,77.51
2018-12-14T09:44:27.466Z,76.57
2018-12-14T09:45:27.520Z,77.62
2018-12-14T09:46:27.457Z,76.57
2018-12-14T09:47:27.450Z,76.89
2018-12-14T09:48:27.464Z,76.75
2018-12-14T09:49:27.429Z,75.92
2018-12-14T09:50:27.421Z,74.91
2018-12-14T09:51:27.397Z,76.26
2018-12-14T09:52:27.387Z,76.06
2018-12-14T09:53:27.364Z,77.00
2018-12-14T09:54:27.376Z,76.37
2018-12-14T09:55:27.382Z,76.79
2018-12-14T09:56:27.343Z,76.47
2018-12-14T09:57:27.336Z,75.63
2018-12-14T09:58:27.330Z,76.57
2018-12-14T09:59:27.332Z,76.26
2018-12-14T10:00:27.307Z,76.47
2018-12-14T10:01:27.317Z,76.57
2018-12-14T10:02:27.286Z,75.32
2018-12-14T10:03:27.257Z,75.43
2018-12-14T10:04:27.331Z,76.06
2018-12-14T10:05:27.237Z,75.95
2018-12-14T10:06:27.283Z,75.53
2018-12-14T10:07:27.229Z,74.60
2018-12-14T10:08:27.220Z,74.91
2018-12-14T10:09:27.215Z,75.53
2018-12-14T10:10:27.201Z,75.32
2018-12-14T10:11:27.180Z,76.47
2018-12-14T10:12:27.217Z,75.29
2018-12-14T10:13:27.162Z,75.50
2018-12-14T10:14:27.151Z,74.66
2018-12-14T10:15:27.148Z,73.90
2018-12-14T10:16:27.150Z,73.69
2018-12-14T10:17:27.110Z,74.15
2018-12-14T10:18:27.117Z,72.34
2018-12-14T10:19:27.093Z,73.38
2018-12-14T10:20:27.093Z,73.80
2018-12-14T10:21:27.111Z,73.90
2018-12-14T10:22:27.062Z,73.27
2018-12-14T10:23:27.045Z,72.96
2018-12-14T10:24:27.061Z,72.86
2018-12-14T10:25:27.021Z,72.86
2018-12-14T10:26:27.053Z,73.38
2018-12-14T10:27:27.126Z,72.24
2018-12-14T10:28:27.004Z,72.24
2018-12-14T10:29:27.007Z,73.17
2018-12-14T10:30:26.970Z,72.65
2018-12-14T10:31:26.970Z,71.19
2018-12-14T10:32:26.967Z,71.92
2018-12-14T10:33:26.979Z,71.40
2018-12-14T10:34:26.923Z,72.02
2018-12-14T10:35:26.921Z,73.21
2018-12-14T10:36:26.930Z,71.40
2018-12-14T10:37:26.930Z,71.61
2018-12-14T10:38:26.887Z,70.56
2018-12-14T10:39:26.890Z,70.46
2018-12-14T10:40:26.876Z,71.30
2018-12-14T10:41:26.892Z,70.98
2018-12-14T10:42:26.842Z,71.19
2018-12-14T10:43:26.835Z,70.01
2018-12-14T10:44:29.924Z,70.01
2018-12-14T10:45:26.814Z,70.53
2018-12-14T10:46:26.787Z,69.81
2018-12-14T10:47:26.790Z,69.28
2018-12-14T10:48:26.776Z,68.24
2018-12-14T10:49:26.791Z,67.82
2018-12-14T10:50:26.768Z,68.66
2018-12-14T10:51:26.754Z,70.32
2018-12-14T10:52:26.737Z,70.53
2018-12-14T10:53:26.737Z,68.66
2018-12-14T10:54:26.707Z,68.55
2018-12-14T10:55:26.797Z,67.51
2018-12-14T10:56:26.694Z,68.03
2018-12-14T10:57:26.672Z,68.35
2018-12-14T10:58:26.668Z,68.38
2018-12-14T10:59:26.673Z,67.93
2018-12-14T11:00:26.660Z,68.13
2018-12-14T11:01:26.646Z,67.72
2018-12-14T11:02:26.634Z,66.89
2018-12-14T11:03:26.619Z,66.99
2018-12-14T11:04:26.599Z,67.41
2018-12-14T11:05:26.595Z,68.35
2018-12-14T11:06:26.609Z,67.10
2018-12-14T11:07:26.586Z,66.99
2018-12-14T11:08:26.577Z,67.41
2018-12-14T11:09:26.548Z,67.93
2018-12-14T11:10:26.537Z,67.20
2018-12-14T11:11:26.531Z,66.99
2018-12-14T11:12:26.547Z,65.84
2018-12-14T11:13:26.526Z,65.74
2018-12-14T11:14:26.520Z,67.20
2018-12-14T11:15:26.470Z,66.26
2018-12-14T11:16:26.489Z,67.41
2018-12-14T11:17:26.479Z,67.58
2018-12-14T11:18:26.463Z,66.65
2018-12-14T11:19:26.464Z,66.54
2018-12-14T11:20:26.433Z,67.58
2018-12-14T11:21:26.420Z,65.50
2018-12-14T11:22:26.437Z,65.81
2018-12-14T11:23:26.456Z,66.16
2018-12-14T11:24:26.400Z,64.90
2018-12-14T11:25:26.375Z,66.33
2018-12-14T11:26:26.389Z,66.13
2018-12-14T11:27:26.349Z,65.40
2018-12-14T11:28:26.348Z,63.97
2018-12-14T11:29:26.325Z,64.90
2018-12-14T11:30:26.334Z,65.11
2018-12-14T11:31:26.311Z,65.64
2018-12-14T11:32:26.322Z,65.74
2018-12-14T11:33:26.277Z,66.36
2018-12-14T11:34:29.699Z,65.22
2018-12-14T11:35:26.270Z,65.01
2018-12-14T11:36:26.271Z,64.39
2018-12-14T11:37:26.265Z,65.11
2018-12-14T11:38:26.254Z,65.35
2018-12-14T11:39:26.215Z,66.08
2018-12-14T11:40:26.215Z,67.13
2018-12-14T11:41:26.196Z,67.61
2018-12-14T11:42:26.195Z,65.77
2018-12-14T11:43:26.209Z,65.14
2018-12-14T11:44:26.169Z,65.14
2018-12-14T11:45:26.154Z,67.23
2018-12-14T11:46:26.139Z,66.29
2018-12-14T11:47:26.129Z,65.88
2018-12-14T11:48:26.161Z,66.08
2018-12-14T11:49:26.113Z,65.98
2018-12-14T11:50:26.100Z,66.08
2018-12-14T11:51:26.086Z,66.32
2018-12-14T11:52:26.074Z,67.44
2018-12-14T11:53:26.064Z,67.44
2018-12-14T11:54:26.094Z,67.13
2018-12-14T11:55:26.062Z,67.44
2018-12-14T11:56:26.035Z,67.44
2018-12-14T11:57:26.030Z,66.39
2018-12-14T11:58:26.017Z,66.99
2018-12-14T11:59:25.989Z,66.19
2018-12-14T12:00:26.016Z,65.77
2018-12-14T12:01:25.989Z,66.29
2018-12-14T12:02:25.986Z,65.77
2018-12-14T12:03:25.972Z,66.39
2018-12-14T12:04:25.962Z,66.32
2018-12-14T12:05:25.929Z,67.47
2018-12-14T12:06:25.942Z,67.78
2018-12-14T12:07:25.934Z,68.20
2018-12-14T12:08:25.908Z,67.88
2018-12-14T12:09:25.927Z,67.68
2018-12-14T12:10:25.903Z,67.47
2018-12-14T12:11:25.864Z,67.99
2018-12-14T12:12:25.869Z,68.20
2018-12-14T12:13:25.844Z,67.16
2018-12-14T12:14:27.131Z,67.88
2018-12-14T12:15:25.835Z,67.99
2018-12-14T12:16:25.845Z,67.47
2018-12-14T12:17:25.813Z,67.47
2018-12-14T12:18:25.811Z,68.20
2018-12-14T12:19:25.816Z,67.88
2018-12-14T12:20:25.781Z,67.57
2018-12-14T12:21:25.768Z,68.62
2018-12-14T12:22:25.760Z,68.82
2018-12-14T12:23:25.741Z,68.69
2018-12-14T12:24:25.723Z,67.65
2018-12-14T12:25:25.749Z,67.65
2018-12-14T12:26:25.721Z,68.07
2018-12-14T12:27:25.709Z,67.33
2018-12-14T12:28:25.701Z,67.13
2018-12-14T12:29:25.681Z,66.60
2018-12-14T12:30:25.691Z,67.44
2018-12-14T12:31:25.662Z,67.44
2018-12-14T12:32:25.648Z,67.23
2018-12-14T12:33:25.630Z,67.54
2018-12-14T12:34:25.625Z,68.17
2018-12-14T12:35:25.621Z,67.51
2018-12-14T12:36:25.632Z,68.17
2018-12-14T12:37:25.586Z,67.44
2018-12-14T12:38:25.579Z,67.13
2018-12-14T12:39:25.571Z,67.02
2018-12-14T12:40:25.569Z,67.65
2018-12-14T12:41:25.556Z,68.48
2018-12-14T12:42:25.572Z,67.26
2018-12-14T12:43:25.516Z,66.29
2018-12-14T12:44:25.511Z,67.36
2018-12-14T12:45:25.512Z,68.62
2018-12-14T12:46:25.488Z,68.30
2018-12-14T12:47:25.537Z,68.10
2018-12-14T12:48:25.472Z,68.82
2018-12-14T12:49:25.468Z,68.62
2018-12-14T12:50:25.443Z,68.69
2018-12-14T12:51:25.440Z,68.27
2018-12-14T12:52:25.454Z,67.65